createdAt,value
2023-04-15T00:00:03.885Z,25.10
2023-04-15T00:02:32.249Z,24.80
2023-04-15T00:05:00.295Z,25.30
2023-04-15T00:07:29.574Z,25.10
2023-04-15T00:09:57.912Z,25.30
2023-04-15T00:12:26.149Z,25.00
2023-04-15T00:14:54.429Z,25.20
2023-04-15T00:17:23.823Z,25.10
2023-04-15T00:19:51.850Z,25.30
2023-04-15T00:22:19.750Z,25.20
2023-04-15T00:24:47.693Z,25.00
2023-04-15T00:27:16.302Z,25.40
2023-04-15T00:29:44.417Z,25.40
2023-04-15T00:32:12.395Z,24.90
2023-04-15T00:34:41.698Z,25.50
2023-04-15T00:37:11.130Z,25.50
2023-04-15T00:39:39.212Z,25.70
2023-04-15T00:42:07.221Z,25.50
2023-04-15T00:44:35.311Z,25.60
2023-04-15T00:47:04.228Z,25.60
2023-04-15T00:49:32.216Z,25.80
2023-04-15T00:52:01.678Z,25.80
2023-04-15T00:54:29.730Z,25.90
2023-04-15T00:56:57.972Z,25.90
2023-04-15T00:59:26.186Z,25.80
2023-04-15T01:01:54.851Z,25.80
2023-04-15T01:04:23.069Z,26.60
2023-04-15T01:06:51.268Z,26.00
2023-04-15T01:09:20.696Z,26.00
2023-04-15T01:11:48.655Z,26.10
2023-04-15T01:14:17.408Z,25.90
2023-04-15T01:16:45.638Z,26.10
2023-04-15T01:19:15.639Z,26.10
2023-04-15T01:21:43.718Z,25.90
2023-04-15T01:24:12.398Z,26.00
2023-04-15T01:26:44.456Z,26.20
2023-04-15T01:29:13.056Z,25.90
2023-04-15T01:31:41.206Z,25.60
2023-04-15T01:34:09.179Z,26.30
2023-04-15T01:36:37.562Z,25.90
2023-04-15T01:39:06.614Z,25.60
2023-04-15T01:41:34.911Z,26.30
2023-04-15T01:44:04.241Z,25.60
2023-04-15T01:46:32.341Z,25.80
2023-04-15T01:49:00.927Z,25.70
2023-04-15T01:51:29.277Z,26.50
2023-04-15T01:53:57.584Z,26.30
2023-04-15T01:56:25.612Z,26.30
2023-04-15T01:58:53.875Z,26.20
2023-04-15T02:05:30.454Z,26.50
2023-04-15T02:07:59.236Z,26.00
2023-04-15T02:10:27.270Z,26.30
2023-04-15T02:12:55.407Z,26.70
2023-04-15T02:15:23.427Z,26.50
2023-04-15T02:17:52.477Z,26.10
2023-04-15T02:20:22.368Z,26.50
2023-04-15T02:22:52.207Z,26.20
2023-04-15T02:25:20.479Z,25.90
2023-04-15T02:27:48.488Z,26.50
2023-04-15T02:30:17.026Z,26.50
2023-04-15T02:32:45.283Z,26.60
2023-04-15T02:35:13.609Z,26.50
2023-04-15T02:37:43.587Z,26.60
2023-04-15T02:40:14.209Z,26.20
2023-04-15T02:42:44.152Z,26.50
2023-04-15T02:45:13.253Z,26.60
2023-04-15T02:47:41.826Z,26.40
2023-04-15T02:50:13.263Z,26.50
2023-04-15T02:52:42.028Z,26.60
2023-04-15T02:55:10.798Z,26.20
2023-04-15T02:57:41.049Z,26.60
2023-04-15T03:00:11.657Z,26.70
2023-04-15T03:02:42.081Z,26.70
2023-04-15T03:05:13.735Z,26.70
2023-04-15T03:07:41.743Z,26.70
2023-04-15T03:10:11.406Z,26.90
2023-04-15T03:12:40.873Z,27.40
2023-04-15T03:15:11.247Z,26.80
2023-04-15T03:17:39.389Z,26.40
2023-04-15T03:20:09.495Z,26.40
2023-04-15T03:22:37.473Z,26.70
2023-04-15T03:25:06.451Z,26.70
2023-04-15T03:27:34.510Z,26.70
2023-04-15T03:30:03.877Z,26.70
2023-04-15T03:32:32.343Z,26.70
2023-04-15T03:35:00.306Z,26.70
2023-04-15T03:37:28.205Z,26.90
2023-04-15T03:39:56.493Z,26.60
2023-04-15T03:42:24.619Z,26.60
2023-04-15T03:44:52.541Z,26.50
2023-04-15T03:47:21.853Z,26.60
2023-04-15T03:49:49.781Z,26.50
2023-04-15T03:52:17.759Z,26.70
2023-04-15T03:54:45.937Z,27.00
2023-04-15T03:57:14.030Z,27.10
2023-04-15T03:59:41.933Z,27.60
2023-04-15T04:02:10.005Z,27.20
2023-04-15T04:04:39.531Z,27.10
2023-04-15T04:07:07.518Z,27.20
2023-04-15T04:09:35.458Z,26.90
2023-04-15T04:12:04.104Z,27.00
2023-04-15T04:14:32.031Z,27.30
2023-04-15T04:17:00.112Z,27.30
2023-04-15T04:19:29.831Z,27.20
2023-04-15T04:21:59.139Z,26.70
2023-04-15T04:24:27.311Z,26.50
2023-04-15T04:26:56.481Z,27.10
2023-04-15T04:29:24.578Z,26.80
2023-04-15T04:31:52.558Z,27.00
2023-04-15T04:34:20.600Z,27.30
2023-04-15T04:36:48.580Z,27.20
2023-04-15T04:39:17.916Z,27.10
2023-04-15T04:41:45.965Z,26.90
2023-04-15T04:44:13.917Z,26.90
2023-04-15T04:46:41.934Z,27.10
2023-04-15T04:49:09.845Z,26.40
2023-04-15T04:51:37.945Z,26.90
2023-04-15T04:54:05.917Z,27.40
2023-04-15T04:56:35.563Z,27.20
2023-04-15T04:59:03.671Z,27.10
2023-04-15T05:01:31.674Z,27.30
2023-04-15T05:03:59.942Z,27.00
2023-04-15T05:06:30.476Z,27.10
2023-04-15T05:08:58.514Z,27.30
2023-04-15T05:11:26.657Z,27.00
2023-04-15T05:13:56.044Z,26.80
2023-04-15T05:16:25.767Z,27.30
2023-04-15T05:18:53.774Z,27.20
2023-04-15T05:21:21.861Z,27.30
2023-04-15T05:23:49.884Z,27.20
2023-04-15T05:26:17.820Z,27.00
2023-04-15T05:28:46.086Z,26.80
2023-04-15T05:31:15.489Z,27.10
2023-04-15T05:33:43.649Z,27.30
2023-04-15T05:36:12.045Z,27.30
2023-04-15T05:38:40.012Z,27.40
2023-04-15T05:41:07.960Z,27.50
2023-04-15T05:43:36.005Z,26.70
2023-04-15T05:46:03.970Z,27.30
2023-04-15T05:48:33.300Z,27.30
2023-04-15T05:51:01.611Z,27.50
2023-04-15T05:53:29.664Z,27.30
2023-04-15T05:55:57.848Z,26.90
2023-04-15T05:58:25.997Z,27.00
2023-04-15T06:00:54.038Z,27.00
2023-04-15T06:03:22.993Z,27.10
2023-04-15T06:05:52.491Z,27.10
2023-04-15T06:08:20.521Z,26.90
2023-04-15T06:10:48.641Z,27.30
2023-04-15T06:13:17.031Z,27.30
2023-04-15T06:15:44.971Z,26.80
2023-04-15T06:18:13.081Z,27.20
2023-04-15T06:20:41.747Z,27.20
2023-04-15T06:23:11.285Z,27.10
2023-04-15T06:25:39.219Z,27.30
2023-04-15T06:28:07.751Z,27.30
2023-04-15T06:30:36.811Z,27.40
2023-04-15T06:33:05.424Z,27.10
2023-04-15T06:35:33.513Z,27.30
2023-04-15T06:38:01.500Z,27.30
2023-04-15T06:40:31.186Z,27.30
2023-04-15T06:42:59.150Z,27.20
2023-04-15T06:45:27.321Z,27.20
2023-04-15T06:47:55.378Z,27.10
2023-04-15T06:50:23.400Z,27.10
2023-04-15T06:52:51.456Z,27.00
2023-04-15T06:55:19.405Z,27.30
2023-04-15T06:57:48.712Z,27.10
2023-04-15T07:00:17.467Z,27.10
2023-04-15T07:02:46.655Z,27.20
2023-04-15T07:05:15.533Z,27.20
2023-04-15T07:07:43.693Z,27.30
2023-04-15T07:10:11.984Z,27.10
2023-04-15T07:12:39.987Z,27.10
2023-04-15T07:15:10.677Z,27.00
2023-04-15T07:17:38.679Z,26.70
2023-04-15T07:20:08.493Z,26.40
2023-04-15T07:22:36.540Z,26.60
2023-04-15T07:25:05.224Z,26.40
2023-04-15T07:27:33.391Z,26.20
2023-04-15T07:30:01.541Z,25.80
2023-04-15T07:32:30.981Z,25.70
2023-04-15T07:34:59.001Z,25.30
2023-04-15T07:37:28.316Z,25.10
2023-04-15T07:39:56.632Z,24.90
2023-04-15T07:42:24.716Z,24.90
2023-04-15T07:44:53.270Z,24.80
2023-04-15T07:47:21.316Z,24.60
2023-04-15T07:49:51.470Z,24.60
2023-04-15T07:52:19.984Z,24.40
2023-04-15T07:54:47.961Z,24.40
2023-04-15T07:57:16.841Z,24.60
2023-04-15T07:59:44.887Z,24.20
2023-04-15T08:02:13.540Z,23.90
2023-04-15T08:04:41.857Z,24.30
2023-04-15T08:07:11.771Z,24.30
2023-04-15T08:09:39.797Z,23.60
2023-04-15T08:12:09.430Z,23.90
2023-04-15T08:14:37.398Z,24.30
2023-04-15T08:17:05.543Z,24.10
2023-04-15T08:19:34.039Z,23.80
2023-04-15T08:22:02.336Z,24.40
2023-04-15T08:24:32.442Z,24.00
2023-04-15T08:27:01.476Z,24.60
2023-04-15T08:29:30.730Z,24.60
2023-04-15T08:31:59.465Z,23.90
2023-04-15T08:34:27.462Z,24.60
2023-04-15T08:36:55.536Z,24.40
2023-04-15T08:39:23.704Z,24.60
2023-04-15T08:42:02.712Z,24.30
2023-04-15T08:44:34.841Z,24.50
2023-04-15T08:47:03.908Z,24.30
2023-04-15T08:49:33.091Z,24.30
2023-04-15T08:52:01.700Z,24.70
2023-04-15T08:54:29.974Z,24.50
2023-04-15T08:57:00.139Z,24.20
2023-04-15T08:59:28.203Z,24.30
2023-04-15T09:01:57.062Z,23.90
2023-04-15T09:04:25.048Z,24.40
2023-04-15T09:06:53.169Z,23.80
2023-04-15T09:09:21.191Z,24.30
2023-04-15T09:11:49.929Z,24.40
2023-04-15T09:14:19.288Z,24.40
2023-04-15T09:17:01.814Z,24.60
2023-04-15T09:19:30.702Z,24.30
2023-04-15T09:22:01.394Z,24.20
2023-04-15T09:24:38.404Z,24.10
2023-04-15T09:27:06.736Z,24.10
2023-04-15T09:29:37.109Z,23.80
2023-04-15T09:32:13.003Z,22.80
2023-04-15T09:34:40.970Z,23.80
2023-04-15T09:37:10.742Z,23.90
2023-04-15T09:39:50.478Z,22.80
2023-04-15T09:42:24.133Z,24.00
2023-04-15T09:44:53.926Z,24.20
2023-04-15T09:47:31.509Z,23.80
2023-04-15T09:50:00.907Z,24.10
2023-04-15T09:52:29.508Z,18.80
2023-04-15T09:55:00.206Z,17.00
2023-04-15T09:57:37.463Z,17.20
2023-04-15T10:00:09.896Z,16.00
2023-04-15T10:02:38.635Z,16.90
2023-04-15T10:05:08.946Z,18.50
2023-04-15T10:07:37.038Z,18.70
2023-04-15T10:10:07.130Z,18.50
2023-04-15T10:12:35.402Z,16.60
2023-04-15T10:15:07.814Z,15.40
2023-04-15T10:17:37.178Z,17.70
2023-04-15T10:20:07.581Z,15.70
2023-04-15T10:22:37.377Z,15.00
2023-04-15T10:25:07.090Z,16.70
2023-04-15T10:27:35.177Z,17.40
2023-04-15T10:30:03.819Z,16.20
2023-04-15T10:32:34.137Z,16.00
2023-04-15T10:35:04.206Z,15.30
2023-04-15T10:37:37.719Z,14.90
2023-04-15T10:40:28.177Z,14.20
2023-04-15T10:42:57.514Z,15.50
2023-04-15T10:45:28.467Z,15.00
2023-04-15T10:48:00.949Z,15.40
2023-04-15T10:50:32.581Z,15.50
2023-04-15T10:53:03.586Z,15.90
2023-04-15T10:55:34.381Z,14.80
2023-04-15T10:58:03.596Z,17.20
2023-04-15T11:00:35.635Z,15.60
2023-04-15T11:03:09.659Z,16.20
2023-04-15T11:05:52.026Z,16.50
2023-04-15T11:08:20.851Z,17.30
2023-04-15T11:10:56.246Z,17.20
2023-04-15T11:13:33.032Z,17.60
2023-04-15T11:16:03.717Z,17.60
2023-04-15T11:18:35.355Z,17.90
2023-04-15T11:21:06.933Z,17.80
2023-04-15T11:23:38.937Z,17.70
2023-04-15T11:26:11.859Z,18.00
2023-04-15T11:28:42.202Z,18.30
2023-04-15T11:31:12.588Z,18.20
2023-04-15T11:33:47.959Z,17.90
2023-04-15T11:36:16.084Z,18.50
2023-04-15T11:38:45.918Z,18.50
2023-04-15T11:41:14.114Z,18.90
2023-04-15T11:43:43.377Z,18.90
2023-04-15T11:46:11.396Z,18.70
2023-04-15T11:48:46.432Z,18.80
2023-04-15T11:51:15.931Z,18.50
2023-04-15T11:53:47.010Z,19.00
2023-04-15T11:56:20.177Z,19.10
2023-04-15T11:58:50.692Z,19.40
2023-04-15T12:01:18.802Z,19.10
2023-04-15T12:03:50.425Z,19.20
2023-04-15T12:06:20.875Z,19.60
2023-04-15T12:09:01.743Z,19.70
2023-04-15T12:11:42.860Z,20.20
2023-04-15T12:14:14.155Z,20.10
2023-04-15T12:16:49.175Z,20.30
2023-04-15T12:19:24.215Z,20.50
2023-04-15T12:21:54.711Z,20.70
2023-04-15T12:24:23.880Z,20.70
2023-04-15T12:26:53.909Z,20.70
2023-04-15T12:29:27.240Z,21.00
2023-04-15T12:31:57.495Z,20.80
2023-04-15T12:34:32.279Z,20.70
2023-04-15T12:37:02.412Z,21.40
2023-04-15T12:39:32.639Z,21.00
2023-04-15T12:42:01.555Z,20.90
2023-04-15T12:44:30.073Z,21.30
2023-04-15T12:46:58.253Z,21.50
2023-04-15T12:49:27.142Z,21.30
2023-04-15T12:51:59.389Z,21.80
2023-04-15T12:54:28.052Z,21.90
2023-04-15T12:56:56.703Z,22.10
2023-04-15T12:59:24.708Z,22.10
2023-04-15T13:01:53.999Z,22.40
2023-04-15T13:04:23.012Z,22.50
2023-04-15T13:06:51.601Z,23.00
2023-04-15T13:09:20.894Z,23.00
2023-04-15T13:11:48.883Z,23.20
2023-04-15T13:14:16.854Z,23.20
2023-04-15T13:16:44.806Z,23.20
2023-04-15T13:19:12.725Z,23.70
2023-04-15T13:21:40.844Z,23.30
2023-04-15T13:24:09.651Z,23.00
2023-04-15T13:26:39.079Z,23.30
2023-04-15T13:29:07.277Z,23.50
2023-04-15T13:31:35.492Z,23.90
2023-04-15T13:34:03.715Z,23.70
2023-04-15T13:36:32.297Z,23.90
2023-04-15T13:39:00.308Z,23.90
2023-04-15T13:41:28.250Z,23.90
2023-04-15T13:43:58.394Z,24.10
2023-04-15T13:46:26.776Z,23.90
2023-04-15T13:48:54.851Z,22.80
2023-04-15T13:51:22.893Z,24.00
2023-04-15T13:53:50.930Z,24.10
2023-04-15T13:56:18.860Z,24.00
2023-04-15T13:58:47.091Z,24.10
2023-04-15T14:01:16.523Z,24.20
2023-04-15T14:03:44.692Z,23.20
2023-04-15T14:06:12.829Z,24.10
2023-04-15T14:08:40.984Z,24.10
2023-04-15T14:11:08.945Z,24.10
2023-04-15T14:13:37.507Z,23.30
2023-04-15T14:16:06.597Z,24.30
2023-04-15T14:18:37.217Z,24.20
2023-04-15T14:21:07.150Z,24.10
2023-04-15T14:23:35.121Z,24.40
2023-04-15T14:26:03.186Z,23.80
2023-04-15T14:28:32.047Z,23.60
2023-04-15T14:31:00.471Z,24.10
2023-04-15T14:33:28.444Z,24.10
2023-04-15T14:35:57.807Z,23.90
2023-04-15T14:38:25.891Z,24.20
2023-04-15T14:40:53.822Z,23.20
2023-04-15T14:43:22.334Z,23.70
2023-04-15T14:45:51.456Z,24.20
2023-04-15T14:48:19.390Z,24.00
2023-04-15T14:50:47.491Z,24.20
2023-04-15T14:53:16.869Z,24.00
2023-04-15T14:55:45.516Z,24.30
2023-04-15T14:58:13.507Z,24.40
2023-04-15T15:00:44.277Z,24.30
2023-04-15T15:03:13.605Z,24.40
2023-04-15T15:05:42.920Z,24.50
2023-04-15T15:08:11.582Z,24.30
2023-04-15T15:10:49.409Z,24.30
2023-04-15T15:13:19.128Z,24.10
2023-04-15T15:15:49.261Z,24.00
2023-04-15T15:18:18.642Z,24.10
2023-04-15T15:20:46.630Z,24.00
2023-04-15T15:23:15.209Z,23.50
2023-04-15T15:25:44.788Z,24.10
2023-04-15T15:28:13.147Z,24.10
2023-04-15T15:30:41.171Z,24.50
2023-04-15T15:33:09.157Z,24.50
2023-04-15T15:35:37.172Z,24.40
2023-04-15T15:38:06.219Z,25.00
2023-04-15T15:40:34.470Z,24.80
2023-04-15T15:43:04.554Z,24.50
2023-04-15T15:45:32.746Z,24.20
2023-04-15T15:48:01.769Z,24.80
2023-04-15T15:50:29.858Z,24.80
2023-04-15T15:52:58.564Z,24.80
2023-04-15T15:55:27.224Z,24.70
2023-04-15T15:57:55.297Z,24.50
2023-04-15T16:00:24.757Z,24.50
2023-04-15T16:05:28.695Z,25.10
2023-04-15T16:07:56.758Z,24.90
2023-04-15T16:10:24.814Z,24.40
2023-04-15T16:12:52.834Z,25.20
2023-04-15T16:15:21.058Z,24.40
2023-04-15T16:17:50.402Z,25.10
2023-04-15T16:20:18.856Z,24.90
2023-04-15T16:22:47.017Z,25.00
2023-04-15T16:25:15.376Z,25.10
2023-04-15T16:27:56.554Z,24.60
2023-04-15T16:30:28.852Z,25.50
2023-04-15T16:32:59.872Z,25.40
2023-04-15T16:35:28.301Z,24.90
2023-04-15T16:37:56.341Z,25.30
2023-04-15T16:40:24.438Z,25.50
2023-04-15T16:42:53.153Z,25.50
2023-04-15T16:45:21.393Z,25.40
2023-04-15T16:47:49.456Z,25.20
2023-04-15T16:50:18.924Z,25.60
2023-04-15T16:52:47.003Z,25.60
2023-04-15T16:55:15.049Z,25.30
2023-04-15T16:58:02.441Z,24.90
2023-04-15T17:00:31.358Z,25.50
2023-04-15T17:02:59.769Z,25.80
2023-04-15T17:05:30.441Z,25.40
2023-04-15T17:07:58.490Z,25.30
2023-04-15T17:10:26.493Z,25.80
2023-04-15T17:12:56.609Z,25.40
2023-04-15T17:15:24.873Z,25.70
2023-04-15T17:17:53.001Z,25.50
2023-04-15T17:20:21.504Z,25.40
2023-04-15T17:22:51.050Z,25.70
2023-04-15T17:25:19.335Z,25.70
2023-04-15T17:27:47.352Z,25.90
2023-04-15T17:30:15.593Z,26.10
2023-04-15T17:32:43.688Z,25.50
2023-04-15T17:35:11.842Z,26.10
2023-04-15T17:37:40.020Z,25.90
2023-04-15T17:40:11.421Z,25.90
2023-04-15T17:42:39.399Z,26.10
2023-04-15T17:45:09.020Z,25.80
2023-04-15T17:47:37.125Z,25.90
2023-04-15T17:50:05.740Z,25.50
2023-04-15T17:52:33.721Z,26.10
2023-04-15T17:55:02.466Z,26.10
2023-04-15T17:57:31.892Z,25.90
2023-04-15T17:59:59.956Z,25.80
2023-04-15T18:02:28.236Z,26.10
2023-04-15T18:04:56.430Z,26.30
2023-04-15T18:07:24.638Z,26.00
2023-04-15T18:09:55.749Z,26.10
2023-04-15T18:12:23.838Z,25.80
2023-04-15T18:14:53.675Z,26.40
2023-04-15T18:17:21.740Z,25.90
2023-04-15T18:19:49.758Z,26.30
2023-04-15T18:22:17.807Z,26.00
2023-04-15T18:24:45.805Z,26.30
2023-04-15T18:27:13.919Z,25.60
2023-04-15T18:29:42.808Z,26.20
2023-04-15T18:32:12.277Z,25.80
2023-04-15T18:34:42.679Z,25.90
2023-04-15T18:37:10.706Z,26.00
2023-04-15T18:39:38.685Z,26.10
2023-04-15T18:42:06.626Z,26.10
2023-04-15T18:44:34.629Z,26.70
2023-04-15T18:47:02.624Z,26.10
2023-04-15T18:49:33.979Z,25.90
2023-04-15T18:52:01.912Z,26.20
2023-04-15T18:54:29.919Z,26.10
2023-04-15T18:56:57.966Z,26.00
2023-04-15T18:59:30.168Z,26.30
2023-04-15T19:01:59.463Z,26.20
2023-04-15T19:04:29.214Z,26.00
2023-04-15T19:06:59.115Z,25.70
2023-04-15T19:09:27.328Z,26.40
2023-04-15T19:11:56.686Z,26.40
2023-04-15T19:14:24.767Z,26.30
2023-04-15T19:16:52.833Z,26.30
2023-04-15T19:19:20.893Z,26.40
2023-04-15T19:21:50.043Z,26.10
2023-04-15T19:24:20.004Z,26.20
2023-04-15T19:26:50.627Z,26.30
2023-04-15T19:29:18.896Z,26.50
2023-04-15T19:31:46.975Z,26.30
2023-04-15T19:34:15.244Z,26.30
2023-04-15T19:36:43.980Z,26.10
2023-04-15T19:39:12.196Z,26.10
2023-04-15T19:41:41.521Z,26.40
2023-04-15T19:44:09.508Z,26.00
2023-04-15T19:46:37.559Z,26.30
2023-04-15T19:49:06.111Z,26.40
2023-04-15T19:51:34.506Z,26.50
2023-04-15T19:54:02.487Z,26.50
2023-04-15T19:56:32.391Z,26.60
2023-04-15T19:59:03.787Z,26.10
2023-04-15T20:01:32.145Z,26.20
2023-04-15T20:04:03.734Z,26.50
2023-04-15T20:06:31.756Z,26.50
2023-04-15T20:08:59.787Z,26.00
2023-04-15T20:12:44.958Z,26.70
2023-04-15T20:14:18.488Z,26.50
2023-04-15T20:16:46.563Z,26.40
2023-04-15T20:19:14.625Z,26.70
2023-04-15T20:21:42.700Z,27.10
2023-04-15T20:24:10.821Z,26.30
2023-04-15T20:26:38.757Z,26.30
2023-04-15T20:29:06.881Z,26.40
2023-04-15T20:31:36.307Z,26.60
2023-04-15T20:34:04.330Z,26.70
2023-04-15T20:36:32.669Z,26.80
2023-04-15T20:39:00.664Z,26.50
2023-04-15T20:41:28.614Z,26.70
2023-04-15T20:43:56.657Z,26.60
2023-04-15T20:46:26.666Z,26.90
2023-04-15T20:48:56.856Z,26.60
2023-04-15T20:51:24.885Z,26.30
2023-04-15T20:53:52.879Z,26.70
2023-04-15T20:56:21.135Z,26.90
2023-04-15T20:58:49.124Z,26.80
2023-04-15T21:01:17.140Z,26.80
2023-04-15T21:03:45.339Z,26.80
2023-04-15T21:06:14.909Z,26.40
2023-04-15T21:08:42.947Z,26.40
2023-04-15T21:11:11.277Z,26.90
2023-04-15T21:13:39.414Z,26.90
2023-04-15T21:16:07.527Z,26.80
2023-04-15T21:18:35.573Z,26.90
2023-04-15T21:21:04.005Z,27.00
2023-04-15T21:23:35.740Z,26.70
2023-04-15T21:26:03.808Z,26.90
2023-04-15T21:28:31.779Z,26.50
2023-04-15T21:31:00.221Z,27.10
2023-04-15T21:33:28.269Z,27.00
2023-04-15T21:35:56.216Z,26.90
2023-04-15T21:38:24.299Z,26.80
2023-04-15T21:40:53.688Z,27.50
2023-04-15T21:43:22.876Z,27.60
2023-04-15T21:46:21.016Z,28.30
2023-04-15T21:48:38.891Z,27.30
2023-04-15T21:51:06.942Z,28.00
2023-04-15T21:53:34.980Z,28.40
2023-04-15T21:56:04.466Z,28.70
2023-04-15T21:58:32.426Z,28.60
2023-04-15T22:01:00.598Z,28.70
2023-04-15T22:03:30.502Z,28.90
2023-04-15T22:05:58.539Z,29.30
2023-04-15T22:08:26.581Z,29.40
2023-04-15T22:10:56.106Z,29.40
2023-04-15T22:13:25.463Z,29.10
2023-04-15T22:15:53.493Z,29.10
2023-04-15T22:18:21.475Z,28.80
2023-04-15T22:20:49.489Z,28.70
2023-04-15T22:23:20.258Z,29.00
2023-04-15T22:25:48.845Z,28.90
2023-04-15T22:28:16.802Z,28.90
2023-04-15T22:30:46.156Z,28.50
2023-04-15T22:33:14.128Z,28.60
2023-04-15T22:35:42.066Z,28.90
2023-04-15T22:38:10.040Z,28.60
2023-04-15T22:40:38.133Z,28.60
2023-04-15T22:43:06.191Z,28.80
2023-04-15T22:45:34.257Z,28.50
2023-04-15T22:48:05.376Z,28.80
2023-04-15T22:50:33.422Z,28.30
2023-04-15T22:53:01.516Z,28.40
2023-04-15T22:55:29.512Z,28.70
2023-04-15T22:57:57.576Z,28.70
2023-04-15T23:00:25.916Z,28.10
2023-04-15T23:02:53.997Z,28.70
2023-04-15T23:05:23.618Z,28.60
2023-04-15T23:07:51.615Z,28.20
2023-04-15T23:10:19.564Z,28.70
2023-04-15T23:12:47.897Z,28.80
2023-04-15T23:15:16.119Z,28.00
2023-04-15T23:17:44.237Z,28.50
2023-04-15T23:20:13.316Z,28.50
2023-04-15T23:22:43.165Z,28.60
2023-04-15T23:25:11.262Z,28.70
2023-04-15T23:27:39.269Z,28.70
2023-04-15T23:30:09.037Z,28.40
2023-04-15T23:32:37.058Z,28.70
2023-04-15T23:35:05.916Z,28.60
2023-04-15T23:37:33.979Z,29.20
2023-04-15T23:40:03.432Z,28.10
2023-04-15T23:42:31.384Z,28.30
2023-04-15T23:44:59.416Z,28.80
2023-04-15T23:47:27.482Z,28.60
2023-04-15T23:49:55.558Z,28.10
2023-04-15T23:52:24.064Z,28.40
2023-04-15T23:54:52.268Z,28.30
2023-04-15T23:57:21.591Z,28.50
2023-04-15T23:59:49.584Z,28.40
